createdAt,value
2017-06-19T00:00:12.667Z,18.42
2017-06-19T00:00:31.443Z,18.34
2017-06-19T00:00:50.754Z,18.46
2017-06-19T00:01:10.066Z,18.35
2017-06-19T00:01:28.887Z,18.37
2017-06-19T00:01:48.200Z,18.49
2017-06-19T00:02:07.495Z,18.35
2017-06-19T00:02:26.879Z,18.37
2017-06-19T00:02:46.179Z,18.37
2017-06-19T00:03:05.025Z,18.37
2017-06-19T00:03:23.307Z,18.34
2017-06-19T00:03:42.098Z,18.43
2017-06-19T00:04:01.414Z,18.4
2017-06-19T00:04:20.211Z,18.35
2017-06-19T00:04:39.025Z,18.42
2017-06-19T00:04:58.361Z,18.32
2017-06-19T00:05:16.631Z,18.31
2017-06-19T00:05:34.921Z,18.25
2017-06-19T00:05:54.206Z,18.28
2017-06-19T00:06:13.020Z,18.27
2017-06-19T00:06:32.326Z,18.28
2017-06-19T00:06:51.632Z,18.28
2017-06-19T00:07:10.966Z,18.27
2017-06-19T00:07:30.293Z,18.27
2017-06-19T00:07:49.082Z,18.21
2017-06-19T00:08:07.349Z,18.22
2017-06-19T00:08:25.654Z,18.22
2017-06-19T00:08:44.944Z,18.21
2017-06-19T00:09:03.722Z,18.24
2017-06-19T00:09:23.000Z,18.27
2017-06-19T00:09:42.303Z,18.25
2017-06-19T00:10:01.600Z,18.27
2017-06-19T00:10:20.372Z,18.34
2017-06-19T00:10:39.738Z,18.34
2017-06-19T00:10:59.029Z,18.31
2017-06-19T00:11:18.382Z,18.24
2017-06-19T00:11:37.690Z,18.22
2017-06-19T00:11:56.994Z,18.28
2017-06-19T00:12:15.762Z,18.22
2017-06-19T00:12:35.091Z,18.25
2017-06-19T00:12:54.427Z,18.22
2017-06-19T00:13:13.926Z,18.35
2017-06-19T00:13:33.271Z,18.32
2017-06-19T00:13:51.582Z,18.24
2017-06-19T00:14:10.497Z,18.25
2017-06-19T00:14:29.811Z,18.25
2017-06-19T00:14:49.204Z,18.27
2017-06-19T00:15:08.565Z,18.28
2017-06-19T00:15:27.404Z,18.32
2017-06-19T00:15:46.741Z,18.27
2017-06-19T00:16:06.079Z,18.21
2017-06-19T00:16:25.505Z,18.25
2017-06-19T00:16:44.374Z,18.32
2017-06-19T00:17:03.667Z,18.24
2017-06-19T00:17:22.954Z,18.27
2017-06-19T00:17:42.268Z,18.35
2017-06-19T00:18:01.585Z,18.24
2017-06-19T00:18:20.893Z,18.28
2017-06-19T00:18:40.183Z,18.28
2017-06-19T00:18:58.962Z,18.34
2017-06-19T00:19:18.270Z,18.27
2017-06-19T00:19:37.065Z,18.35
2017-06-19T00:19:55.934Z,18.39
2017-06-19T00:20:14.768Z,18.37
2017-06-19T00:20:34.088Z,18.42
2017-06-19T00:20:53.433Z,18.4
2017-06-19T00:21:12.727Z,18.5
2017-06-19T00:21:31.502Z,18.42
2017-06-19T00:21:50.846Z,18.46
2017-06-19T00:22:10.198Z,18.46
2017-06-19T00:22:28.482Z,18.47
2017-06-19T00:22:47.270Z,18.46
2017-06-19T00:23:06.605Z,18.46
2017-06-19T00:23:25.879Z,18.5
2017-06-19T00:23:45.165Z,18.34
2017-06-19T00:24:04.475Z,18.37
2017-06-19T00:24:23.249Z,18.42
2017-06-19T00:24:42.031Z,18.34
2017-06-19T00:25:00.825Z,18.39
2017-06-19T00:25:20.117Z,18.39
2017-06-19T00:25:38.951Z,18.37
2017-06-19T00:25:58.297Z,18.35
2017-06-19T00:26:17.590Z,18.37
2017-06-19T00:26:36.887Z,18.39
2017-06-19T00:26:55.685Z,18.42
2017-06-19T00:27:14.994Z,18.37
2017-06-19T00:27:33.789Z,18.37
2017-06-19T00:27:53.100Z,18.39
2017-06-19T00:28:11.918Z,18.39
2017-06-19T00:28:31.220Z,18.43
2017-06-19T00:28:50.525Z,18.37
2017-06-19T00:29:09.856Z,18.31
2017-06-19T00:29:29.146Z,18.32
2017-06-19T00:29:48.468Z,18.39
2017-06-19T00:30:07.808Z,18.35
2017-06-19T00:30:27.098Z,18.37
2017-06-19T00:30:45.894Z,18.34
2017-06-19T00:31:05.197Z,18.31
2017-06-19T00:31:24.490Z,18.35
2017-06-19T00:31:43.810Z,18.31
2017-06-19T00:32:03.111Z,18.29
2017-06-19T00:32:22.419Z,18.28
2017-06-19T00:32:40.690Z,18.32
2017-06-19T00:32:59.971Z,18.22
2017-06-19T00:33:19.299Z,18.28
2017-06-19T00:33:38.097Z,18.22
2017-06-19T00:33:56.909Z,18.27
2017-06-19T00:34:16.202Z,18.22
2017-06-19T00:34:33.965Z,18.25
2017-06-19T00:34:53.267Z,18.32
2017-06-19T00:35:12.035Z,18.29
2017-06-19T00:35:30.811Z,18.31
2017-06-19T00:35:50.133Z,18.31
2017-06-19T00:36:09.436Z,18.28
2017-06-19T00:36:28.202Z,18.29
2017-06-19T00:36:47.499Z,18.24
2017-06-19T00:37:06.801Z,18.19
2017-06-19T00:37:25.594Z,18.31
2017-06-19T00:37:43.878Z,18.25
2017-06-19T00:38:03.163Z,18.29
2017-06-19T00:38:22.461Z,18.31
2017-06-19T00:38:41.235Z,18.28
2017-06-19T00:39:00.522Z,18.25
2017-06-19T00:39:19.818Z,18.24
2017-06-19T00:39:39.114Z,18.25
2017-06-19T00:39:58.433Z,18.22
2017-06-19T00:40:17.737Z,18.24
2017-06-19T00:40:37.077Z,18.31
2017-06-19T00:40:56.390Z,18.21
2017-06-19T00:41:15.693Z,18.25
2017-06-19T00:41:34.482Z,18.24
2017-06-19T00:41:53.783Z,18.24
2017-06-19T00:42:12.587Z,18.25
2017-06-19T00:42:31.356Z,18.13
2017-06-19T00:42:50.679Z,18.14
2017-06-19T00:43:10.017Z,18.19
2017-06-19T00:43:28.304Z,18.19
2017-06-19T00:43:47.636Z,18.19
2017-06-19T00:44:06.936Z,18.19
2017-06-19T00:44:26.235Z,18.16
2017-06-19T00:44:45.535Z,18.18
2017-06-19T00:45:04.839Z,18.19
2017-06-19T00:45:24.139Z,18.21
2017-06-19T00:45:43.461Z,18.18
2017-06-19T00:46:02.757Z,18.16
2017-06-19T00:46:21.546Z,18.1
2017-06-19T00:46:40.865Z,18.13
2017-06-19T00:47:00.203Z,18.11
2017-06-19T00:47:18.974Z,18.16
2017-06-19T00:47:37.770Z,18.16
2017-06-19T00:47:57.121Z,18.18
2017-06-19T00:48:15.922Z,18.29
2017-06-19T00:48:35.240Z,18.27
2017-06-19T00:48:54.569Z,18.24
2017-06-19T00:49:13.890Z,18.21
2017-06-19T00:49:33.204Z,18.24
2017-06-19T00:49:52.496Z,18.21
2017-06-19T00:50:11.801Z,18.25
2017-06-19T00:50:31.092Z,18.14
2017-06-19T00:50:49.892Z,18.24
2017-06-19T00:51:09.196Z,18.27
2017-06-19T00:51:27.989Z,18.19
2017-06-19T00:51:47.270Z,18.28
2017-06-19T00:52:06.061Z,18.42
2017-06-19T00:52:24.857Z,18.39
2017-06-19T00:52:44.177Z,18.22
2017-06-19T00:53:03.500Z,18.37
2017-06-19T00:53:22.306Z,18.43
2017-06-19T00:53:41.106Z,18.42
2017-06-19T00:53:59.895Z,18.47
2017-06-19T00:54:19.182Z,18.44
2017-06-19T00:54:38.489Z,18.39
2017-06-19T00:54:57.784Z,18.39
2017-06-19T00:55:17.101Z,18.35
2017-06-19T00:55:36.430Z,18.39
2017-06-19T00:55:55.232Z,18.34
2017-06-19T00:56:14.017Z,18.37
2017-06-19T00:56:33.337Z,18.4
2017-06-19T00:56:52.650Z,18.37
2017-06-19T00:57:11.998Z,18.44
2017-06-19T00:57:31.315Z,18.35
2017-06-19T00:57:50.604Z,18.22
2017-06-19T00:58:09.911Z,18.25
2017-06-19T00:58:28.708Z,18.31
2017-06-19T00:58:47.509Z,18.22
2017-06-19T00:59:06.287Z,18.27
2017-06-19T00:59:25.605Z,18.24
2017-06-19T00:59:44.384Z,18.28
2017-06-19T01:00:03.668Z,18.27
2017-06-19T01:00:22.946Z,18.31
2017-06-19T01:00:42.257Z,18.31
2017-06-19T01:01:01.578Z,18.34
2017-06-19T01:01:20.861Z,18.4
2017-06-19T01:01:40.176Z,18.49
2017-06-19T01:01:59.469Z,18.39
2017-06-19T01:02:18.301Z,18.31
2017-06-19T01:02:37.610Z,18.37
2017-06-19T01:02:56.936Z,18.42
2017-06-19T01:03:16.232Z,18.4
2017-06-19T01:03:35.904Z,18.52
2017-06-19T01:03:55.191Z,18.43
2017-06-19T01:04:14.521Z,18.47
2017-06-19T01:04:33.330Z,18.43
2017-06-19T01:04:52.666Z,18.43
2017-06-19T01:05:11.463Z,18.37
2017-06-19T01:05:30.255Z,18.37
2017-06-19T01:05:49.551Z,18.53
2017-06-19T01:06:08.879Z,18.5
2017-06-19T01:06:27.690Z,18.4
2017-06-19T01:06:45.952Z,18.52
2017-06-19T01:07:05.263Z,18.47
2017-06-19T01:07:24.042Z,18.59
2017-06-19T01:07:43.365Z,18.52
2017-06-19T01:08:02.143Z,18.61
2017-06-19T01:08:21.476Z,18.58
2017-06-19T01:08:40.792Z,18.69
2017-06-19T01:09:00.119Z,18.68
2017-06-19T01:09:19.403Z,18.64
2017-06-19T01:09:38.219Z,18.62
2017-06-19T01:09:56.996Z,18.61
2017-06-19T01:10:15.772Z,18.58
2017-06-19T01:10:35.076Z,18.69
2017-06-19T01:10:54.401Z,18.69
2017-06-19T01:11:13.907Z,18.76
2017-06-19T01:11:33.812Z,18.77
2017-06-19T01:11:53.816Z,18.83
2017-06-19T01:12:13.821Z,18.84
2017-06-19T01:12:33.837Z,18.79
2017-06-19T01:12:53.272Z,18.73
2017-06-19T01:13:13.273Z,18.71
2017-06-19T01:13:33.298Z,18.74
2017-06-19T01:13:52.769Z,18.76
2017-06-19T01:14:12.242Z,18.76
2017-06-19T01:14:31.689Z,18.73
2017-06-19T01:14:51.706Z,18.69
2017-06-19T01:15:11.729Z,18.71
2017-06-19T01:15:31.754Z,18.69
2017-06-19T01:15:51.786Z,18.74
2017-06-19T01:16:11.827Z,18.73
2017-06-19T01:16:31.865Z,18.76
2017-06-19T01:16:51.894Z,18.73
2017-06-19T01:17:11.904Z,18.76
2017-06-19T01:17:31.345Z,18.77
2017-06-19T01:17:51.366Z,18.8
2017-06-19T01:18:11.386Z,18.83
2017-06-19T01:18:31.389Z,18.83
2017-06-19T01:18:50.294Z,18.9
2017-06-19T01:19:10.320Z,18.84
2017-06-19T01:19:30.322Z,18.9
2017-06-19T01:19:49.787Z,18.92
2017-06-19T01:20:09.802Z,18.8
2017-06-19T01:20:29.251Z,18.87
2017-06-19T01:20:48.727Z,18.9
2017-06-19T01:21:08.751Z,18.95
2017-06-19T01:21:28.203Z,18.84
2017-06-19T01:21:47.654Z,18.9
2017-06-19T01:22:07.657Z,18.89
2017-06-19T01:22:27.675Z,18.79
2017-06-19T01:22:47.687Z,18.83
2017-06-19T01:23:07.696Z,18.83
2017-06-19T01:23:27.682Z,18.92
2017-06-19T01:23:47.717Z,18.82
2017-06-19T01:24:07.719Z,18.84
2017-06-19T01:24:27.178Z,18.87
2017-06-19T01:24:47.170Z,18.87
2017-06-19T01:25:07.193Z,19.01
2017-06-19T01:25:27.241Z,18.97
2017-06-19T01:25:47.264Z,18.92
2017-06-19T01:26:07.299Z,18.94
2017-06-19T01:26:26.177Z,18.87
2017-06-19T01:26:46.179Z,18.99
2017-06-19T01:27:05.611Z,18.98
2017-06-19T01:27:25.657Z,19.01
2017-06-19T01:27:45.281Z,19.02
2017-06-19T01:28:04.730Z,18.97
2017-06-19T01:28:24.730Z,18.99
2017-06-19T01:28:44.762Z,18.95
2017-06-19T01:29:04.772Z,18.9
2017-06-19T01:29:23.652Z,18.89
2017-06-19T01:29:43.131Z,18.83
2017-06-19T01:30:03.172Z,18.87
2017-06-19T01:30:23.181Z,18.84
2017-06-19T01:30:43.195Z,18.84
2017-06-19T01:31:03.223Z,18.95
2017-06-19T01:31:23.219Z,18.92
2017-06-19T01:31:43.243Z,18.9
2017-06-19T01:32:03.271Z,18.82
2017-06-19T01:32:23.292Z,18.77
2017-06-19T01:32:42.731Z,18.83
2017-06-19T01:33:02.253Z,18.83
2017-06-19T01:33:22.257Z,18.84
2017-06-19T01:33:42.266Z,18.89
2017-06-19T01:34:02.300Z,18.89
2017-06-19T01:34:22.315Z,18.95
2017-06-19T01:34:42.342Z,18.83
2017-06-19T01:35:02.340Z,18.84
2017-06-19T01:35:22.376Z,18.83
2017-06-19T01:35:41.809Z,18.8
2017-06-19T01:36:01.852Z,18.79
2017-06-19T01:36:21.865Z,18.84
2017-06-19T01:36:41.893Z,18.84
2017-06-19T01:37:01.344Z,18.8
2017-06-19T01:37:20.813Z,18.84
2017-06-19T01:37:40.260Z,18.86
2017-06-19T01:38:00.260Z,18.8
2017-06-19T01:38:20.272Z,18.71
2017-06-19T01:38:40.283Z,18.64
2017-06-19T01:39:00.308Z,18.71
2017-06-19T01:39:19.740Z,18.67
2017-06-19T01:39:39.194Z,18.59
2017-06-19T01:39:59.191Z,18.71
2017-06-19T01:40:18.070Z,18.53
2017-06-19T01:40:38.092Z,18.64
2017-06-19T01:40:56.988Z,18.52
2017-06-19T01:41:16.440Z,18.5
2017-06-19T01:41:35.887Z,18.47
2017-06-19T01:41:55.336Z,18.43
2017-06-19T01:42:15.370Z,18.5
2017-06-19T01:42:35.378Z,18.46
2017-06-19T01:42:54.816Z,18.42
2017-06-19T01:43:14.827Z,18.5
2017-06-19T01:43:34.885Z,18.46
2017-06-19T01:43:54.900Z,18.44
2017-06-19T01:44:14.896Z,18.46
2017-06-19T01:44:34.899Z,18.49
2017-06-19T01:44:54.904Z,18.47
2017-06-19T01:45:14.928Z,18.55
2017-06-19T01:45:34.927Z,18.5
2017-06-19T01:45:54.939Z,18.5
2017-06-19T01:46:14.951Z,18.61
2017-06-19T01:46:34.967Z,18.59
2017-06-19T01:46:54.988Z,18.65
2017-06-19T01:47:14.996Z,18.62
2017-06-19T01:47:35.172Z,18.58
2017-06-19T01:47:55.163Z,18.62
2017-06-19T01:48:14.593Z,18.65
2017-06-19T01:48:34.638Z,18.65
2017-06-19T01:48:54.639Z,18.67
2017-06-19T01:49:14.656Z,18.62
2017-06-19T01:49:34.681Z,18.61
2017-06-19T01:49:54.707Z,18.65
2017-06-19T01:50:14.165Z,18.62
2017-06-19T01:50:34.219Z,18.58
2017-06-19T01:50:54.205Z,18.62
2017-06-19T01:51:14.204Z,18.52
2017-06-19T01:51:34.211Z,18.49
2017-06-19T01:51:53.690Z,18.5
2017-06-19T01:52:12.607Z,18.59
2017-06-19T01:52:32.646Z,18.53
2017-06-19T01:52:52.658Z,18.5
2017-06-19T01:53:12.693Z,18.42
2017-06-19T01:53:32.716Z,18.46
2017-06-19T01:53:52.725Z,18.55
2017-06-19T01:54:12.715Z,18.47
2017-06-19T01:54:32.718Z,18.58
2017-06-19T01:54:52.728Z,18.58
2017-06-19T01:55:12.716Z,18.58
2017-06-19T01:55:32.184Z,18.53
2017-06-19T01:55:52.199Z,18.61
2017-06-19T01:56:12.239Z,18.65
2017-06-19T01:56:32.236Z,18.49
2017-06-19T01:56:52.266Z,18.61
2017-06-19T01:57:12.289Z,18.61
2017-06-19T01:57:32.307Z,18.55
2017-06-19T01:57:51.759Z,18.64
2017-06-19T01:58:11.780Z,18.61
2017-06-19T01:58:31.791Z,18.61
2017-06-19T01:58:51.808Z,18.57
2017-06-19T01:59:10.722Z,18.71
2017-06-19T01:59:30.167Z,18.61
2017-06-19T01:59:49.611Z,18.57
2017-06-19T02:00:09.097Z,18.64
2017-06-19T02:00:28.555Z,18.61
2017-06-19T02:00:48.594Z,18.61
2017-06-19T02:01:08.626Z,18.61
2017-06-19T02:01:28.684Z,18.65
2017-06-19T02:01:48.248Z,18.73
2017-06-19T02:02:08.278Z,18.65
2017-06-19T02:02:27.723Z,18.65
2017-06-19T02:02:47.185Z,18.71
2017-06-19T02:03:07.622Z,18.71
2017-06-19T02:03:27.637Z,18.62
2017-06-19T02:03:47.632Z,18.49
2017-06-19T02:04:07.655Z,18.57
2017-06-19T02:04:27.681Z,18.53
2017-06-19T02:04:47.124Z,18.37
2017-06-19T02:05:07.122Z,18.44
2017-06-19T02:05:26.564Z,18.46
2017-06-19T02:05:46.028Z,18.42
2017-06-19T02:06:06.119Z,18.47
2017-06-19T02:06:25.564Z,18.53
2017-06-19T02:06:44.473Z,18.47
2017-06-19T02:07:04.474Z,18.59
2017-06-19T02:07:24.481Z,18.59
2017-06-19T02:07:44.492Z,18.55
2017-06-19T02:08:04.541Z,18.61
2017-06-19T02:08:24.003Z,18.58
2017-06-19T02:08:43.475Z,18.58
2017-06-19T02:09:02.366Z,18.67
2017-06-19T02:09:22.383Z,18.65
2017-06-19T02:09:41.841Z,18.65
2017-06-19T02:10:01.306Z,18.65
2017-06-19T02:10:21.311Z,18.64
2017-06-19T02:10:40.760Z,18.68
2017-06-19T02:11:00.782Z,18.76
2017-06-19T02:11:19.673Z,18.69
2017-06-19T02:11:39.123Z,18.73
2017-06-19T02:11:59.141Z,18.74
2017-06-19T02:12:19.185Z,18.69
2017-06-19T02:12:38.655Z,18.68
2017-06-19T02:12:58.681Z,18.71
2017-06-19T02:13:18.123Z,18.79
2017-06-19T02:13:38.137Z,18.68
2017-06-19T02:13:58.156Z,18.62
2017-06-19T02:14:18.171Z,18.69
2017-06-19T02:14:37.601Z,18.68
2017-06-19T02:14:57.602Z,18.61
2017-06-19T02:15:17.628Z,18.74
2017-06-19T02:15:37.086Z,18.62
2017-06-19T02:15:56.548Z,18.61
2017-06-19T02:16:16.580Z,18.69
2017-06-19T02:16:36.576Z,18.64
2017-06-19T02:16:56.018Z,18.68
2017-06-19T02:17:16.012Z,18.64
2017-06-19T02:17:36.027Z,18.61
2017-06-19T02:17:56.031Z,18.64
2017-06-19T02:18:16.062Z,18.57
2017-06-19T02:18:36.112Z,18.58
2017-06-19T02:18:56.137Z,18.73
2017-06-19T02:19:16.131Z,18.59
2017-06-19T02:19:35.570Z,18.65
2017-06-19T02:19:55.017Z,18.62
2017-06-19T02:20:15.059Z,18.62
2017-06-19T02:20:34.498Z,18.71
2017-06-19T02:20:54.540Z,18.71
2017-06-19T02:21:14.547Z,18.79
2017-06-19T02:21:34.013Z,18.74
2017-06-19T02:21:54.038Z,18.82
2017-06-19T02:22:14.060Z,18.86
2017-06-19T02:22:34.091Z,18.9
2017-06-19T02:22:54.102Z,18.83
2017-06-19T02:23:14.142Z,18.9
2017-06-19T02:23:33.638Z,18.95
2017-06-19T02:23:53.640Z,18.89
2017-06-19T02:24:13.682Z,18.9
2017-06-19T02:24:33.161Z,18.95
2017-06-19T02:24:53.173Z,18.94
2017-06-19T02:25:12.609Z,18.92
2017-06-19T02:25:32.645Z,19.01
2017-06-19T02:25:52.649Z,18.87
2017-06-19T02:26:12.679Z,18.97
2017-06-19T02:26:32.668Z,19.02
2017-06-19T02:26:52.667Z,19.01
2017-06-19T02:27:12.656Z,18.95
2017-06-19T02:27:32.693Z,18.99
2017-06-19T02:27:52.691Z,18.98
2017-06-19T02:28:12.748Z,18.92
2017-06-19T02:28:32.744Z,18.89
2017-06-19T02:28:52.771Z,18.86
2017-06-19T02:29:12.205Z,18.89
2017-06-19T02:29:31.655Z,18.84
2017-06-19T02:29:51.677Z,18.82
2017-06-19T02:30:11.731Z,18.79
2017-06-19T02:30:31.748Z,18.8
2017-06-19T02:30:51.786Z,18.82
2017-06-19T02:31:11.833Z,18.83
2017-06-19T02:31:31.850Z,18.84
2017-06-19T02:31:51.297Z,18.8
2017-06-19T02:32:11.367Z,18.77
2017-06-19T02:32:31.393Z,18.8
2017-06-19T02:32:51.401Z,18.87
2017-06-19T02:33:11.424Z,18.83
2017-06-19T02:33:31.443Z,18.8
2017-06-19T02:33:51.511Z,18.71
2017-06-19T02:34:11.532Z,18.76
2017-06-19T02:34:31.529Z,18.67
2017-06-19T02:34:51.002Z,18.62
2017-06-19T02:35:10.469Z,18.68
2017-06-19T02:35:29.934Z,18.71
2017-06-19T02:35:50.051Z,18.64
2017-06-19T02:36:10.291Z,18.76
2017-06-19T02:36:29.748Z,18.73
2017-06-19T02:36:49.805Z,18.69
2017-06-19T02:37:09.839Z,18.68
2017-06-19T02:37:29.297Z,18.67
2017-06-19T02:37:48.752Z,18.44
2017-06-19T02:38:08.787Z,18.49
2017-06-19T02:38:28.791Z,18.43
2017-06-19T02:38:48.801Z,18.27
2017-06-19T02:39:08.808Z,18.32
2017-06-19T02:39:28.280Z,18.34
2017-06-19T02:39:48.270Z,18.31
2017-06-19T02:40:07.704Z,18.25
2017-06-19T02:40:27.143Z,18.25
2017-06-19T02:40:46.610Z,18.19
2017-06-19T02:41:06.083Z,18.27
2017-06-19T02:41:25.546Z,18.28
2017-06-19T02:41:45.725Z,18.24
2017-06-19T02:42:05.711Z,18.27
2017-06-19T02:42:25.185Z,18.29
2017-06-19T02:42:45.225Z,18.34
2017-06-19T02:43:05.260Z,18.28
2017-06-19T02:43:24.149Z,18.24
2017-06-19T02:43:44.152Z,18.35
2017-06-19T02:44:04.159Z,18.24
2017-06-19T02:44:23.642Z,18.28
2017-06-19T02:44:43.822Z,18.29
2017-06-19T02:45:03.270Z,18.19
2017-06-19T02:45:22.703Z,18.31
2017-06-19T02:45:42.143Z,18.32
2017-06-19T02:46:02.165Z,18.28
2017-06-19T02:46:22.166Z,18.24
2017-06-19T02:46:42.174Z,18.21
2017-06-19T02:47:02.180Z,18.29
2017-06-19T02:47:22.175Z,18.21
2017-06-19T02:47:42.188Z,18.21
2017-06-19T02:48:02.215Z,18.18
2017-06-19T02:48:21.660Z,18.25
2017-06-19T02:48:41.681Z,18.25
2017-06-19T02:49:01.701Z,18.19
2017-06-19T02:49:21.157Z,18.24
2017-06-19T02:49:40.604Z,18.24
2017-06-19T02:50:00.623Z,18.16
2017-06-19T02:50:20.063Z,18.18
2017-06-19T02:50:39.528Z,18.1
2017-06-19T02:50:59.021Z,18.14
2017-06-19T02:51:18.497Z,18.14
2017-06-19T02:51:37.966Z,18.14
2017-06-19T02:51:57.982Z,18.13
2017-06-19T02:52:16.301Z,18.09
2017-06-19T02:52:35.728Z,18.06
2017-06-19T02:52:55.737Z,18.11
2017-06-19T02:53:15.744Z,18.16
2017-06-19T02:53:35.813Z,18.06
2017-06-19T02:53:55.831Z,17.94
2017-06-19T02:54:14.740Z,17.98
2017-06-19T02:54:34.747Z,17.98
2017-06-19T02:54:54.776Z,17.96
2017-06-19T02:55:14.228Z,17.91
2017-06-19T02:55:34.251Z,17.92
2017-06-19T02:55:53.684Z,17.85
2017-06-19T02:56:13.143Z,17.94
2017-06-19T02:56:33.172Z,17.94
2017-06-19T02:56:52.638Z,17.85
2017-06-19T02:57:12.091Z,17.92
2017-06-19T02:57:31.538Z,17.89
2017-06-19T02:57:51.547Z,17.82
2017-06-19T02:58:11.574Z,17.87
2017-06-19T02:58:31.584Z,17.89
2017-06-19T02:58:51.590Z,17.92
2017-06-19T02:59:11.032Z,17.79
2017-06-19T02:59:49.033Z,17.85
2017-06-19T03:00:08.144Z,17.87
2017-06-19T03:00:27.786Z,17.74
2017-06-19T03:00:46.902Z,17.77
2017-06-19T03:01:06.568Z,17.69
2017-06-19T03:01:26.214Z,17.81
2017-06-19T03:01:45.541Z,17.81
2017-06-19T03:02:04.310Z,17.74
2017-06-19T03:02:23.587Z,17.77
2017-06-19T03:02:42.385Z,17.77
2017-06-19T03:03:01.689Z,17.66
2017-06-19T03:03:20.986Z,17.77
2017-06-19T03:03:40.270Z,17.74
2017-06-19T03:03:59.604Z,17.77
2017-06-19T03:04:18.387Z,17.67
2017-06-19T03:04:37.703Z,17.63
2017-06-19T03:04:56.495Z,17.55
2017-06-19T03:05:15.783Z,17.58
2017-06-19T03:05:34.584Z,17.6
2017-06-19T03:05:52.852Z,17.66
2017-06-19T03:06:12.141Z,17.57
2017-06-19T03:06:30.937Z,17.57
2017-06-19T03:06:50.235Z,17.57
2017-06-19T03:07:09.563Z,17.6
2017-06-19T03:07:28.347Z,17.57
2017-06-19T03:07:47.679Z,17.5
2017-06-19T03:08:06.996Z,17.5
2017-06-19T03:08:26.308Z,17.5
2017-06-19T03:08:45.106Z,17.55
2017-06-19T03:09:03.900Z,17.6
2017-06-19T03:09:23.203Z,17.58
2017-06-19T03:09:42.502Z,17.66
2017-06-19T03:10:01.838Z,17.58
2017-06-19T03:10:21.142Z,17.53
2017-06-19T03:10:40.434Z,17.57
2017-06-19T03:10:59.252Z,17.51
2017-06-19T03:11:18.047Z,17.53
2017-06-19T03:11:37.330Z,17.48
2017-06-19T03:11:56.119Z,17.55
2017-06-19T03:12:15.428Z,17.53
2017-06-19T03:12:34.748Z,17.46
2017-06-19T03:12:54.056Z,17.46
2017-06-19T03:13:13.369Z,17.5
2017-06-19T03:13:32.662Z,17.46
2017-06-19T03:13:51.449Z,17.35
2017-06-19T03:14:10.761Z,17.39
2017-06-19T03:14:29.537Z,17.36
2017-06-19T03:14:48.853Z,17.43
2017-06-19T03:15:08.181Z,17.44
2017-06-19T03:15:27.491Z,17.3
2017-06-19T03:15:46.306Z,17.21
2017-06-19T03:16:05.066Z,17.36
2017-06-19T03:16:24.372Z,17.28
2017-06-19T03:16:43.725Z,17.29
2017-06-19T03:17:02.557Z,17.2
2017-06-19T03:17:21.870Z,17.25
2017-06-19T03:17:40.664Z,17.3
2017-06-19T03:17:59.444Z,17.28
2017-06-19T03:18:32.749Z,17.21
2017-06-19T03:18:52.074Z,17.13
2017-06-19T03:19:11.385Z,17.2
2017-06-19T03:19:30.673Z,17.14
2017-06-19T03:19:49.999Z,17.13
2017-06-19T03:20:08.769Z,17.13
2017-06-19T03:20:28.097Z,17.08
2017-06-19T03:20:47.481Z,17.07
2017-06-19T03:21:06.849Z,16.99
2017-06-19T03:21:26.387Z,17.08
2017-06-19T03:21:45.245Z,17.1
2017-06-19T03:22:04.546Z,17.1
2017-06-19T03:22:23.855Z,16.95
2017-06-19T03:22:42.648Z,16.95
2017-06-19T03:23:01.950Z,16.92
2017-06-19T03:23:21.258Z,16.93
2017-06-19T03:23:40.035Z,16.92
2017-06-19T03:23:59.343Z,16.96
2017-06-19T03:24:18.159Z,16.95
2017-06-19T03:24:37.516Z,17.02
2017-06-19T03:24:56.852Z,17
2017-06-19T03:25:15.637Z,16.98
2017-06-19T03:25:34.942Z,16.99
2017-06-19T03:25:53.762Z,16.92
2017-06-19T03:26:13.051Z,16.98
2017-06-19T03:26:32.369Z,17
2017-06-19T03:26:51.664Z,16.98
2017-06-19T03:27:10.435Z,17
2017-06-19T03:27:29.729Z,17.02
2017-06-19T03:27:48.509Z,16.95
2017-06-19T03:28:07.843Z,17.05
2017-06-19T03:28:26.628Z,17.08
2017-06-19T03:28:45.429Z,17
2017-06-19T03:29:04.765Z,17.08
2017-06-19T03:29:23.573Z,16.98
2017-06-19T03:29:42.866Z,17.15
2017-06-19T03:30:02.179Z,17.14
2017-06-19T03:30:21.513Z,17.14
2017-06-19T03:30:40.313Z,17.17
2017-06-19T03:30:59.651Z,17.17
2017-06-19T03:31:18.972Z,17.03
2017-06-19T03:31:37.769Z,17.18
2017-06-19T03:31:57.075Z,17.08
2017-06-19T03:32:15.866Z,17.13
2017-06-19T03:32:35.177Z,17.07
2017-06-19T03:32:53.949Z,17.07
2017-06-19T03:33:13.248Z,17.1
2017-06-19T03:33:32.531Z,17.07
2017-06-19T03:33:51.832Z,16.98
2017-06-19T03:34:11.120Z,16.99
2017-06-19T03:34:30.445Z,16.96
2017-06-19T03:34:48.704Z,16.98
2017-06-19T03:35:08.045Z,16.99
2017-06-19T03:35:26.821Z,16.96
2017-06-19T03:35:45.620Z,16.99
2017-06-19T03:36:04.921Z,16.95
2017-06-19T03:36:23.717Z,16.98
2017-06-19T03:36:43.015Z,16.99
2017-06-19T03:37:02.307Z,17
2017-06-19T03:37:21.626Z,16.92
2017-06-19T03:37:40.918Z,16.93
2017-06-19T03:37:59.705Z,16.9
2017-06-19T03:38:18.477Z,16.9
2017-06-19T03:38:37.783Z,16.9
2017-06-19T03:38:57.063Z,16.88
2017-06-19T03:39:16.383Z,16.92
2017-06-19T03:39:35.677Z,16.8
2017-06-19T03:39:54.952Z,16.84
2017-06-19T03:40:13.761Z,16.82
2017-06-19T03:40:32.544Z,16.85
2017-06-19T03:40:51.328Z,16.81
2017-06-19T03:41:10.663Z,16.84
2017-06-19T03:41:29.981Z,16.92
2017-06-19T03:41:49.291Z,16.89
2017-06-19T03:42:08.611Z,16.88
2017-06-19T03:42:27.927Z,16.98
2017-06-19T03:42:47.235Z,16.95
2017-06-19T03:43:06.044Z,17.13
2017-06-19T03:43:25.351Z,17.05
2017-06-19T03:43:44.657Z,17.08
2017-06-19T03:44:03.443Z,17.05
2017-06-19T03:44:22.768Z,17.11
2017-06-19T03:44:42.094Z,17.11
2017-06-19T03:45:01.403Z,17.15
2017-06-19T03:45:20.700Z,17.14
2017-06-19T03:45:39.992Z,17.17
2017-06-19T03:45:59.306Z,17.1
2017-06-19T03:46:18.598Z,17.13
2017-06-19T03:46:37.916Z,17.1
2017-06-19T03:46:56.687Z,17.11
2017-06-19T03:47:15.475Z,16.99
2017-06-19T03:47:34.814Z,17
2017-06-19T03:47:54.115Z,16.92
2017-06-19T03:48:13.438Z,16.8
2017-06-19T03:48:32.746Z,16.78
2017-06-19T03:48:51.550Z,16.74
2017-06-19T03:49:09.808Z,16.74
2017-06-19T03:49:29.107Z,16.74
2017-06-19T03:49:48.427Z,16.67
2017-06-19T03:50:07.741Z,16.71
2017-06-19T03:50:27.055Z,16.59
2017-06-19T03:50:46.361Z,16.55
2017-06-19T03:51:05.686Z,16.48
2017-06-19T03:51:24.991Z,16.5
2017-06-19T03:51:44.299Z,16.5
2017-06-19T03:52:03.617Z,16.57
2017-06-19T03:52:22.392Z,16.55
2017-06-19T03:52:41.677Z,16.62
2017-06-19T03:53:00.986Z,16.53
2017-06-19T03:53:20.295Z,16.62
2017-06-19T03:53:39.090Z,16.71
2017-06-19T03:53:57.364Z,16.65
2017-06-19T03:54:16.178Z,16.74
2017-06-19T03:54:35.517Z,16.77
2017-06-19T03:54:54.836Z,16.85
2017-06-19T03:55:13.629Z,16.81
2017-06-19T03:55:32.429Z,16.85
2017-06-19T03:55:51.189Z,16.84
2017-06-19T03:56:10.495Z,16.88
2017-06-19T03:56:29.800Z,16.77
2017-06-19T03:56:49.087Z,16.75
2017-06-19T03:57:08.391Z,16.8
2017-06-19T03:57:27.215Z,16.7
2017-06-19T03:57:46.013Z,16.77
2017-06-19T03:58:05.316Z,16.7
2017-06-19T03:58:24.606Z,16.55
2017-06-19T03:58:43.900Z,16.63
2017-06-19T03:59:03.185Z,16.63
2017-06-19T03:59:21.960Z,16.63
2017-06-19T03:59:41.269Z,16.6
2017-06-19T04:00:00.547Z,16.6
2017-06-19T04:00:19.884Z,16.57
2017-06-19T04:00:39.176Z,16.6
2017-06-19T04:00:57.950Z,16.57
2017-06-19T04:01:17.212Z,16.6
2017-06-19T04:01:36.524Z,16.52
2017-06-19T04:01:55.837Z,16.52
2017-06-19T04:02:15.163Z,16.55
2017-06-19T04:02:33.946Z,16.53
2017-06-19T04:02:53.256Z,16.52
2017-06-19T04:03:12.582Z,16.48
2017-06-19T04:03:31.371Z,16.38
2017-06-19T04:03:50.661Z,16.48
2017-06-19T04:04:09.458Z,16.48
2017-06-19T04:04:28.241Z,16.53
2017-06-19T04:04:47.023Z,16.52
2017-06-19T04:05:06.305Z,16.55
2017-06-19T04:05:25.616Z,16.6
2017-06-19T04:05:44.932Z,16.63
2017-06-19T04:06:04.222Z,16.53
2017-06-19T04:06:22.467Z,16.57
2017-06-19T04:06:41.257Z,16.63
2017-06-19T04:07:00.577Z,16.65
2017-06-19T04:07:19.896Z,16.59
2017-06-19T04:07:39.186Z,16.6
2017-06-19T04:07:58.480Z,16.53
2017-06-19T04:08:17.290Z,16.56
2017-06-19T04:08:36.595Z,16.73
2017-06-19T04:08:55.900Z,16.71
2017-06-19T04:09:14.156Z,16.78
2017-06-19T04:09:32.416Z,16.89
2017-06-19T04:09:51.736Z,16.84
2017-06-19T04:10:09.997Z,16.96
2017-06-19T04:10:28.794Z,16.96
2017-06-19T04:10:48.121Z,16.96
2017-06-19T04:11:06.897Z,17.03
2017-06-19T04:11:25.660Z,17.03